Baconton, GA (31716)

12:46 AM EST on February 10, 2016 (GMT -0500)
Southwest Georgia Regional | | Change Station
CLOSE
Current Station
Airport
Location: Albany,
Elevation: 194 ft
Nearby Weather Stations
Active Advisory: Freeze Warning Active Notice: Local Storm Report

Elev 194 ft 31.54 °N, 84.19 °W | Updated 53 minutes ago

Clear
Clear
31 °F
Feels Like 31 °F
N
0
Wind Variable Wind from North

Today
High -- | Low -- °F
--% Chance of Precip.
Yesterday
High -- | Low -- °F
Precip. -- in
Pressure 30.11 in
Visibility 10.0 miles
Clouds Clear
Dew Point 20 °F
Humidity 64%
Rainfall 0.00 in
Snow Depth Not available.
7:22 AM 6:19 PM
Waxing Crescent, 4% visible
METAR KABY 100453Z AUTO 00000KT 10SM CLR M01/M07 A3010 RMK AO2 SLP196 T10061067 401001006
Pressure 30.11 in
Visibility 10.0 miles
Clouds Clear
Dew Point 20 °F
Humidity 64%
Rainfall 0.00 in
Snow Depth Not available.
7:22 AM 6:19 PM
Waxing Crescent, 4% visible
METAR KABY 100453Z AUTO 00000KT 10SM CLR M01/M07 A3010 RMK AO2 SLP196 T10061067 401001006

10-Day Weather Forecast

Almanac

Astronomy

Feb. 10, 2016 Rise Set
Actual Time
Civil Twilight
Nautical Twilight
Astronomical Twilight
Moon
Length of Visible Light
Length of Day
Tomorrow will be .
, % of the Moon is Illuminated

Today's Extremes

State Highs State Lows

Community

WunderPhotos

Upload Photos

1,891,823 photos uploaded!

WunderBlog® & News

Nearby

Air Quality

  Air Quality AQ Index Pollutant
Not available.

Snow Depth

Station Depth Elevation

Earthquake Activity

City Distance Mag. Time & Date
Minimum magnitude displayed is 2.5.

Coastal Water Temperatures

Place Temperature

Stations

Nearby Weather Stations

Station Location Temp. Windchill Dew Point Humidity Wind Precip. Elev Updated Type
                   

Watches & Warnings

Freeze Warning
Issued: 7:18 PM CST Feb. 9, 2016 – National Weather Service

... Freeze warning remains in effect until 9 am EST /8 am CST/
Wednesday...

* min temperatures... upper 20s to near 30 tonight.

Precautionary/preparedness actions...

A freeze warning means sub-freezing temperatures are imminent or
highly likely. Exposure to freezing temperatures may damage some
unprotected... sensitive vegetation.



Harrigan